Time;durP1;ratioP1;P1;durP2;ratioP2;P2;SDS_P1;SDS_P2;PMS_P1;PMS_P2;Temp;Humidity;BMP_temperature;BMP_pressure;BME280_temperature;BME280_humidity;BME280_pressure;Samples;Min_cycle;Max_cycle;Signal;HPM_P1;HPM_P2
2021/10/14 00:00:14;;;;;;;3.40;2.43;;;5.90;99.90;;;;;;5092698;28;20441;-68
2021/10/14 00:02:41;;;;;;;2.83;2.50;;;5.90;99.90;;;;;;5111613;28;20442;-68
2021/10/14 00:05:10;;;;;;;4.80;2.80;;;5.80;99.90;;;;;;5097032;28;20435;-68
2021/10/14 00:07:37;;;;;;;9.23;3.43;;;6.10;99.90;;;;;;5093248;28;20483;-68
2021/10/14 00:10:05;;;;;;;4.53;2.70;;;6.10;99.90;;;;;;5095068;28;20445;-68
2021/10/14 00:12:32;;;;;;;3.33;3.03;;;6.10;99.90;;;;;;5094342;28;20484;-68
2021/10/14 00:14:59;;;;;;;4.93;3.43;;;6.00;99.90;;;;;;5099181;28;20446;-68
2021/10/14 00:17:27;;;;;;;4.93;3.10;;;5.90;99.90;;;;;;5112366;28;20535;-68
2021/10/14 00:19:54;;;;;;;4.60;2.90;;;6.00;99.90;;;;;;5103838;28;20541;-68
2021/10/14 00:22:22;;;;;;;4.47;3.37;;;6.10;99.90;;;;;;5114566;28;20481;-68
2021/10/14 00:24:49;;;;;;;5.13;3.53;;;6.00;99.90;;;;;;5112202;28;20447;-68
2021/10/14 00:27:16;;;;;;;4.83;2.83;;;6.10;99.90;;;;;;5094111;28;20441;-68
2021/10/14 00:29:42;;;;;;;5.70;3.17;;;5.70;99.90;;;;;;5094796;28;20437;-67
2021/10/14 00:32:09;;;;;;;4.90;3.40;;;5.50;99.90;;;;;;5094317;28;20974;-67
2021/10/14 00:34:36;;;;;;;4.80;3.43;;;5.50;99.90;;;;;;5094521;28;20445;-68
2021/10/14 00:37:03;;;;;;;6.93;3.37;;;5.40;99.90;;;;;;5113903;28;20534;-68
2021/10/14 00:39:31;;;;;;;5.67;3.20;;;5.40;99.90;;;;;;5114028;28;20443;-68
2021/10/14 00:41:58;;;;;;;4.57;3.20;;;5.30;99.90;;;;;;5114332;28;20471;-68
2021/10/14 00:44:25;;;;;;;3.93;3.27;;;5.20;99.90;;;;;;5109720;28;20442;-68
2021/10/14 00:46:53;;;;;;;5.10;3.30;;;5.20;99.90;;;;;;5116021;27;20969;-68
2021/10/14 00:49:21;;;;;;;4.07;3.07;;;5.10;99.90;;;;;;5134216;27;20443;-67
2021/10/14 00:51:49;;;;;;;4.27;3.40;;;5.10;99.90;;;;;;5134994;27;20442;-67
2021/10/14 00:54:19;;;;;;;4.93;2.73;;;5.00;99.90;;;;;;5134225;27;20449;-67
2021/10/14 00:56:48;;;;;;;5.53;4.90;;;5.00;99.90;;;;;;5115988;27;20428;-68
2021/10/14 00:59:15;;;;;;;4.07;3.07;;;4.90;99.90;;;;;;5114131;28;20440;-67
2021/10/14 01:01:42;;;;;;;4.47;3.40;;;5.00;99.90;;;;;;5113936;27;20471;-67
2021/10/14 01:04:09;;;;;;;3.87;2.93;;;5.10;99.90;;;;;;5114423;28;20450;-67
2021/10/14 01:06:36;;;;;;;7.77;3.87;;;5.10;99.90;;;;;;5120999;27;20883;-67
2021/10/14 01:09:03;;;;;;;5.17;2.70;;;5.00;99.90;;;;;;5114290;27;20513;-67
2021/10/14 01:11:30;;;;;;;3.60;3.27;;;4.90;99.90;;;;;;5114602;27;20489;-67
2021/10/14 01:13:58;;;;;;;4.90;3.17;;;5.00;99.90;;;;;;5115212;27;20531;-67
2021/10/14 01:16:25;;;;;;;3.67;2.70;;;5.00;99.90;;;;;;5128116;27;20998;-67
2021/10/14 01:18:51;;;;;;;3.47;3.17;;;4.90;99.90;;;;;;5133933;27;20455;-67
2021/10/14 01:21:20;;;;;;;3.20;2.77;;;4.90;99.90;;;;;;5131363;27;20832;-67
2021/10/14 01:23:47;;;;;;;4.60;3.33;;;4.70;99.90;;;;;;5114981;27;20443;-67
2021/10/14 01:26:14;;;;;;;3.33;3.03;;;4.80;99.90;;;;;;5117758;27;20454;-67
2021/10/14 01:28:41;;;;;;;4.80;3.30;;;4.80;99.90;;;;;;5114064;27;20942;-67
2021/10/14 01:31:08;;;;;;;3.93;2.80;;;4.70;99.90;;;;;;5133885;27;20541;-67
2021/10/14 01:33:35;;;;;;;4.83;3.03;;;4.80;99.90;;;;;;5133475;27;20447;-67
2021/10/14 01:36:03;;;;;;;3.90;3.10;;;4.80;99.90;;;;;;5122292;27;20461;-67
2021/10/14 01:38:31;;;;;;;4.83;2.60;;;4.80;99.90;;;;;;5133289;27;20778;-67
2021/10/14 01:40:58;;;;;;;3.60;2.40;;;4.80;99.90;;;;;;5116713;27;20539;-68
2021/10/14 01:43:25;;;;;;;4.03;2.70;;;4.80;99.90;;;;;;5113092;27;20451;-67
2021/10/14 01:45:52;;;;;;;5.00;3.50;;;4.80;99.90;;;;;;5122048;27;20454;-67
2021/10/14 01:48:19;;;;;;;5.53;3.10;;;4.70;99.90;;;;;;5120036;27;20437;-68
2021/10/14 01:50:45;;;;;;;6.03;2.93;;;4.80;99.90;;;;;;5113627;28;20465;-67
2021/10/14 01:53:13;;;;;;;3.60;3.13;;;4.90;99.90;;;;;;5121792;27;20439;-67
2021/10/14 01:55:41;;;;;;;3.33;2.50;;;5.00;99.90;;;;;;5118071;27;20467;-67
2021/10/14 01:58:08;;;;;;;4.47;2.60;;;4.90;99.90;;;;;;5113218;28;20948;-68
2021/10/14 02:00:35;;;;;;;4.97;2.80;;;4.90;99.90;;;;;;5114979;27;20444;-67
2021/10/14 02:03:02;;;;;;;3.10;2.77;;;4.80;99.90;;;;;;5133354;27;20837;-67
2021/10/14 02:05:28;;;;;;;6.70;2.70;;;4.80;99.90;;;;;;5131294;27;20529;-67
2021/10/14 02:07:55;;;;;;;3.73;3.00;;;4.80;99.90;;;;;;5131594;27;20442;-67
2021/10/14 02:10:22;;;;;;;3.60;3.23;;;4.70;99.90;;;;;;5117622;27;20446;-67
2021/10/14 02:12:52;;;;;;;5.07;3.40;;;4.70;99.90;;;;;;5121701;27;20478;-68
2021/10/14 02:15:19;;;;;;;5.43;2.73;;;4.80;99.90;;;;;;5128188;27;20955;-67
2021/10/14 02:17:46;;;;;;;6.57;3.77;;;4.80;99.90;;;;;;5112655;28;20440;-67
2021/10/14 02:20:13;;;;;;;4.73;2.80;;;5.00;99.90;;;;;;5112929;27;20454;-67
2021/10/14 02:22:40;;;;;;;5.30;3.63;;;5.00;99.90;;;;;;5112301;28;20486;-67
2021/10/14 02:25:08;;;;;;;4.27;3.37;;;4.90;99.90;;;;;;5124483;27;20447;-67
2021/10/14 02:27:35;;;;;;;4.80;2.83;;;5.00;99.90;;;;;;5112142;27;20475;-67
2021/10/14 02:30:05;;;;;;;3.87;2.47;;;5.00;99.90;;;;;;5112242;28;20786;-67
2021/10/14 02:32:32;;;;;;;6.33;3.40;;;4.90;99.90;;;;;;5112080;27;20459;-67
2021/10/14 02:34:59;;;;;;;4.63;2.20;;;4.90;99.90;;;;;;5118272;27;20450;-67
2021/10/14 02:37:26;;;;;;;3.90;2.90;;;5.00;99.90;;;;;;5128381;27;21019;-67
2021/10/14 02:39:53;;;;;;;4.30;3.30;;;4.80;99.90;;;;;;5126294;27;20530;-67
2021/10/14 02:42:21;;;;;;;3.60;3.17;;;4.80;99.90;;;;;;5132536;27;21048;-67
2021/10/14 02:44:48;;;;;;;4.40;2.70;;;4.70;99.90;;;;;;5132988;27;20490;-67
2021/10/14 02:47:16;;;;;;;6.63;2.93;;;4.80;99.90;;;;;;5098682;27;20476;-67
2021/10/14 02:49:43;;;;;;;3.97;2.53;;;4.70;99.90;;;;;;5091161;28;20920;-67
2021/10/14 02:52:10;;;;;;;3.77;3.03;;;4.60;99.90;;;;;;5103877;28;20981;-67
2021/10/14 02:54:37;;;;;;;3.60;2.63;;;4.50;99.90;;;;;;5104671;28;20562;-67
2021/10/14 02:57:04;;;;;;;4.40;3.30;;;4.50;99.90;;;;;;5094265;28;20527;-67
2021/10/14 02:59:31;;;;;;;3.30;2.73;;;4.50;99.90;;;;;;5091025;28;20475;-67
2021/10/14 03:01:57;;;;;;;4.17;2.67;;;4.50;99.90;;;;;;5111256;28;20477;-67
2021/10/14 03:04:26;;;;;;;3.37;2.57;;;4.50;99.90;;;;;;5110746;28;20624;-67
2021/10/14 03:06:53;;;;;;;3.80;3.00;;;4.50;99.90;;;;;;5095718;28;20452;-67
2021/10/14 03:09:19;;;;;;;4.13;3.00;;;4.50;99.90;;;;;;5103798;28;20450;-67
2021/10/14 03:11:46;;;;;;;5.20;3.20;;;4.50;99.90;;;;;;5111728;28;20538;-67
2021/10/14 03:14:13;;;;;;;4.63;3.00;;;4.60;99.90;;;;;;5109882;28;20462;-67
2021/10/14 03:16:40;;;;;;;5.27;3.23;;;4.60;99.90;;;;;;5097460;28;20945;-67
2021/10/14 03:19:07;;;;;;;4.53;2.93;;;4.50;99.90;;;;;;5090992;28;20445;-67
2021/10/14 03:21:35;;;;;;;5.10;3.07;;;4.40;99.90;;;;;;5094668;28;20478;-67
2021/10/14 03:24:02;;;;;;;3.63;2.90;;;4.40;99.90;;;;;;5099381;28;20455;-67
2021/10/14 03:26:29;;;;;;;3.87;2.93;;;4.30;99.90;;;;;;5094081;28;20440;-67
2021/10/14 03:28:56;;;;;;;5.93;3.67;;;4.30;99.90;;;;;;5103485;28;20583;-67
2021/10/14 03:31:23;;;;;;;5.43;4.47;;;4.50;99.90;;;;;;5111391;28;20544;-67
2021/10/14 03:33:50;;;;;;;4.47;2.90;;;4.60;99.90;;;;;;5111160;28;20966;-67
2021/10/14 03:36:17;;;;;;;5.20;2.63;;;4.80;99.90;;;;;;5101408;28;20971;-67
2021/10/14 03:38:45;;;;;;;4.43;3.37;;;4.70;99.90;;;;;;5101198;28;20795;-67
2021/10/14 03:41:12;;;;;;;5.53;3.37;;;4.60;99.90;;;;;;5109975;28;20566;-67
2021/10/14 03:43:39;;;;;;;4.33;2.77;;;4.40;99.90;;;;;;5115172;28;20828;-67
2021/10/14 03:46:05;;;;;;;6.60;4.10;;;4.40;99.90;;;;;;5110752;27;21005;-67
2021/10/14 03:48:32;;;;;;;6.20;2.97;;;4.40;99.90;;;;;;5125743;27;20525;-67
2021/10/14 03:50:59;;;;;;;4.90;3.27;;;4.40;99.90;;;;;;5120820;27;20529;-67
2021/10/14 03:53:26;;;;;;;4.83;3.00;;;4.30;99.90;;;;;;5127445;27;20450;-67
2021/10/14 03:55:54;;;;;;;4.90;3.20;;;4.20;99.90;;;;;;5115410;28;20440;-67
2021/10/14 03:58:21;;;;;;;6.07;2.90;;;4.30;99.90;;;;;;5126307;27;20443;-67
2021/10/14 04:00:48;;;;;;;4.37;2.93;;;4.20;99.90;;;;;;5135358;27;20430;-67
2021/10/14 04:03:15;;;;;;;4.57;3.03;;;4.20;99.90;;;;;;5135917;27;20474;-67
2021/10/14 04:05:41;;;;;;;5.73;3.27;;;4.20;99.90;;;;;;5135498;27;20541;-67
2021/10/14 04:08:08;;;;;;;4.97;3.70;;;4.20;99.90;;;;;;5136011;27;20435;-68
2021/10/14 04:10:36;;;;;;;4.33;3.13;;;4.30;99.90;;;;;;5123613;27;20885;-68
2021/10/14 04:13:04;;;;;;;3.90;2.60;;;4.30;99.90;;;;;;5115400;28;20451;-67
2021/10/14 04:15:31;;;;;;;5.03;4.03;;;4.30;99.90;;;;;;5124869;27;20571;-66
2021/10/14 04:17:58;;;;;;;7.73;4.30;;;4.20;99.90;;;;;;5135626;27;20969;-68
2021/10/14 04:20:26;;;;;;;4.40;3.40;;;4.20;99.90;;;;;;5135944;27;20868;-68
2021/10/14 04:22:53;;;;;;;3.57;3.03;;;4.30;99.90;;;;;;5135655;27;20466;-67
2021/10/14 04:25:20;;;;;;;7.90;2.97;;;4.40;99.90;;;;;;5135685;27;20526;-67
2021/10/14 04:27:47;;;;;;;5.13;4.13;;;4.30;99.90;;;;;;5130764;27;20450;-71
2021/10/14 04:30:15;;;;;;;4.93;3.30;;;4.30;99.90;;;;;;5114806;28;20439;-69
2021/10/14 04:32:43;;;;;;;4.70;3.07;;;4.30;99.90;;;;;;5114904;28;20466;-71
2021/10/14 04:35:10;;;;;;;5.07;3.73;;;4.30;99.90;;;;;;5134991;27;20525;-67
2021/10/14 04:37:40;;;;;;;5.60;3.63;;;4.30;99.90;;;;;;5134265;27;20452;-66
2021/10/14 04:40:08;;;;;;;5.43;3.27;;;4.50;99.90;;;;;;5130520;27;20444;-68
2021/10/14 04:42:35;;;;;;;5.27;4.77;;;4.60;99.90;;;;;;5115297;27;20834;-66
2021/10/14 04:45:02;;;;;;;7.80;7.00;;;4.80;99.90;;;;;;5114563;28;20782;-66
2021/10/14 04:47:30;;;;;;;4.47;3.10;;;4.80;99.90;;;;;;5113437;28;20561;-66
2021/10/14 04:49:57;;;;;;;4.83;3.63;;;4.70;99.90;;;;;;5114556;28;20446;-66
2021/10/14 04:52:24;;;;;;;3.77;2.60;;;4.70;99.90;;;;;;5114050;28;20538;-66
2021/10/14 04:54:51;;;;;;;3.43;3.03;;;4.70;99.90;;;;;;5114044;28;20439;-66
2021/10/14 04:57:17;;;;;;;4.97;2.80;;;4.60;99.90;;;;;;5114256;28;20958;-66
2021/10/14 04:59:44;;;;;;;5.03;3.80;;;4.60;99.90;;;;;;5113950;28;20530;-66
2021/10/14 05:02:11;;;;;;;8.70;3.57;;;4.60;99.90;;;;;;5114103;28;20474;-65
2021/10/14 05:04:39;;;;;;;5.93;4.30;;;4.60;99.90;;;;;;5113762;28;20440;-66
2021/10/14 05:07:06;;;;;;;4.83;2.97;;;4.60;99.90;;;;;;5114302;28;20446;-66
2021/10/14 05:09:33;;;;;;;6.03;3.10;;;4.80;99.90;;;;;;5113745;28;20444;-66
2021/10/14 05:12:01;;;;;;;6.63;3.27;;;4.80;99.90;;;;;;5114313;28;20438;-65
2021/10/14 05:14:29;;;;;;;7.03;3.30;;;4.80;99.90;;;;;;5114293;28;20795;-65
2021/10/14 05:16:56;;;;;;;4.20;3.27;;;4.90;99.90;;;;;;5113907;28;20538;-66
2021/10/14 05:19:23;;;;;;;4.20;2.90;;;4.90;99.90;;;;;;5114157;28;20451;-66
2021/10/14 05:21:53;;;;;;;4.63;3.10;;;5.00;99.90;;;;;;5113308;28;21079;-66
2021/10/14 05:24:21;;;;;;;4.63;3.67;;;5.00;99.90;;;;;;5114158;28;20462;-66
2021/10/14 05:26:47;;;;;;;4.20;2.83;;;5.00;99.90;;;;;;5113408;28;20504;-66
2021/10/14 05:29:14;;;;;;;3.90;2.90;;;5.00;99.90;;;;;;5113927;28;20446;-66
2021/10/14 05:31:41;;;;;;;6.77;3.10;;;5.10;99.90;;;;;;5113369;28;20451;-66
2021/10/14 05:34:08;;;;;;;8.20;3.03;;;5.10;99.90;;;;;;5113750;28;20443;-66
2021/10/14 05:36:35;;;;;;;5.90;3.37;;;5.20;99.90;;;;;;5113194;28;20443;-66
2021/10/14 05:39:04;;;;;;;7.20;2.90;;;5.30;99.90;;;;;;5113650;28;20478;-66
2021/10/14 05:41:31;;;;;;;5.03;2.90;;;5.40;99.90;;;;;;5113486;28;20527;-66
2021/10/14 05:43:58;;;;;;;7.00;2.93;;;5.30;99.90;;;;;;5113337;28;20478;-65
2021/10/14 05:46:25;;;;;;;4.60;3.93;;;5.40;99.90;;;;;;5113380;28;20571;-66
2021/10/14 05:48:51;;;;;;;4.80;3.80;;;5.40;99.90;;;;;;5112853;28;20436;-66
2021/10/14 05:51:18;;;;;;;4.90;3.33;;;5.40;99.90;;;;;;5113425;28;20435;-66
2021/10/14 05:53:45;;;;;;;3.93;2.83;;;5.40;99.90;;;;;;5112664;28;20475;-66
2021/10/14 05:56:13;;;;;;;4.43;3.57;;;5.40;99.90;;;;;;5113389;28;20435;-66
2021/10/14 05:58:40;;;;;;;5.97;2.83;;;5.40;99.90;;;;;;5112609;28;20432;-66
2021/10/14 06:01:07;;;;;;;3.87;3.13;;;5.50;99.90;;;;;;5113103;28;20798;-66
2021/10/14 06:03:36;;;;;;;6.03;3.23;;;5.50;99.90;;;;;;5111925;28;21060;-66
2021/10/14 06:06:03;;;;;;;3.10;2.73;;;5.50;99.90;;;;;;5112619;28;20494;-66
2021/10/14 06:08:30;;;;;;;5.60;3.20;;;5.60;99.90;;;;;;5112962;28;20861;-66
2021/10/14 06:10:57;;;;;;;4.40;2.97;;;5.50;99.90;;;;;;5112334;28;20575;-66
2021/10/14 06:13:25;;;;;;;5.90;3.40;;;5.60;99.90;;;;;;5113028;28;20454;-66
2021/10/14 06:15:52;;;;;;;4.93;2.80;;;5.70;99.90;;;;;;5112404;28;20795;-66
2021/10/14 06:18:20;;;;;;;7.00;3.43;;;5.70;99.90;;;;;;5112941;28;20436;-66
2021/10/14 06:20:47;;;;;;;4.10;2.93;;;5.80;99.90;;;;;;5112342;28;20444;-66
2021/10/14 06:23:14;;;;;;;5.70;3.63;;;5.80;99.90;;;;;;5112806;28;21046;-66
2021/10/14 06:25:41;;;;;;;6.90;4.13;;;6.00;99.90;;;;;;5112526;28;20440;-66
2021/10/14 06:28:07;;;;;;;3.97;3.00;;;6.10;99.90;;;;;;5112804;28;20467;-66
2021/10/14 06:30:36;;;;;;;4.63;3.00;;;6.30;99.90;;;;;;5112039;28;20546;-66
2021/10/14 06:33:02;;;;;;;3.80;3.20;;;6.30;99.90;;;;;;5112689;28;20786;-67
2021/10/14 06:35:29;;;;;;;5.00;3.30;;;6.40;99.90;;;;;;5112683;28;20879;-66
2021/10/14 06:37:58;;;;;;;6.43;3.60;;;6.30;99.90;;;;;;5111963;28;20450;-66
2021/10/14 06:40:25;;;;;;;8.80;3.87;;;6.40;99.90;;;;;;5112481;28;20451;-66
2021/10/14 06:42:52;;;;;;;6.80;3.60;;;6.40;99.90;;;;;;5111665;28;20478;-66
2021/10/14 06:45:19;;;;;;;5.90;3.83;;;6.40;99.90;;;;;;5112363;28;20518;-66
2021/10/14 06:47:47;;;;;;;6.13;4.60;;;6.60;99.90;;;;;;5111214;28;20463;-66
2021/10/14 06:50:14;;;;;;;5.63;3.87;;;6.50;99.90;;;;;;5112215;28;20559;-66
2021/10/14 06:52:42;;;;;;;4.80;3.50;;;6.60;99.90;;;;;;5111695;28;20473;-66
2021/10/14 06:55:10;;;;;;;5.17;3.90;;;6.70;99.90;;;;;;5111508;28;20562;-66
2021/10/14 06:57:37;;;;;;;5.60;3.57;;;6.80;99.90;;;;;;5111232;28;20432;-66
2021/10/14 07:00:05;;;;;;;6.40;3.63;;;6.90;99.90;;;;;;5111837;28;20479;-66
2021/10/14 07:02:32;;;;;;;5.23;3.43;;;7.00;99.90;;;;;;5111774;28;20598;-66
2021/10/14 07:05:02;;;;;;;9.57;3.93;;;7.00;99.90;;;;;;5111562;28;20508;-66
2021/10/14 07:07:29;;;;;;;3.20;2.83;;;7.20;99.90;;;;;;5112100;28;20475;-66
2021/10/14 07:09:56;;;;;;;3.87;3.20;;;7.30;99.90;;;;;;5111137;28;20995;-66
2021/10/14 07:12:27;;;;;;;3.83;2.80;;;7.40;37.90;;;;;;5112001;28;20450;-66
2021/10/14 07:14:55;;;;;;;4.40;3.07;;;7.60;41.40;;;;;;5111122;28;20436;-66
2021/10/14 07:17:22;;;;;;;5.63;3.70;;;7.70;1.00;;;;;;5112025;28;20459;-66
2021/10/14 07:19:49;;;;;;;8.00;3.40;;;7.90;1.00;;;;;;5111243;28;20531;-66
2021/10/14 07:22:17;;;;;;;6.03;3.33;;;7.80;1.00;;;;;;5111577;28;20928;-67
2021/10/14 07:24:44;;;;;;;3.73;2.80;;;7.90;1.00;;;;;;5111108;28;20554;-66
2021/10/14 07:27:11;;;;;;;3.43;3.13;;;8.10;99.90;;;;;;5111467;28;21029;-66
2021/10/14 07:29:38;;;;;;;3.47;2.97;;;8.20;99.90;;;;;;5111153;28;20439;-66
2021/10/14 07:32:06;;;;;;;6.20;3.30;;;8.20;1.00;;;;;;5111818;28;20450;-66
2021/10/14 07:34:33;;;;;;;4.97;3.33;;;8.30;42.70;;;;;;5111529;28;21012;-66
2021/10/14 07:37:00;;;;;;;3.00;2.53;;;8.50;61.30;;;;;;5111075;28;20435;-66
2021/10/14 07:39:29;;;;;;;7.37;3.60;;;8.60;1.00;;;;;;5111655;28;20443;-66
2021/10/14 07:41:56;;;;;;;4.47;2.90;;;8.80;99.90;;;;;;5111099;28;20868;-66
2021/10/14 07:44:23;;;;;;;4.47;2.57;;;8.80;99.90;;;;;;5111434;28;20471;-67
2021/10/14 07:46:49;;;;;;;10.03;3.03;;;8.80;1.00;;;;;;5110512;28;21067;-66
2021/10/14 07:49:19;;;;;;;7.90;3.17;;;8.90;99.90;;;;;;5111275;28;20519;-66
2021/10/14 07:51:46;;;;;;;10.53;3.90;;;8.80;1.00;;;;;;5110499;28;20545;-66
2021/10/14 07:54:14;;;;;;;12.80;3.70;;;8.80;10.00;;;;;;5110908;28;20939;-66
2021/10/14 07:56:42;;;;;;;6.40;3.10;;;8.70;1.00;;;;;;5110889;28;20446;-66
2021/10/14 07:59:09;;;;;;;4.67;3.33;;;8.80;14.40;;;;;;5111261;28;21026;-66
2021/10/14 08:01:36;;;;;;;5.40;3.13;;;8.90;1.00;;;;;;5111112;28;20443;-66
2021/10/14 08:04:03;;;;;;;6.07;3.53;;;9.00;99.90;;;;;;5110823;28;20833;-66
2021/10/14 08:06:30;;;;;;;5.90;3.10;;;9.00;99.90;;;;;;5111529;28;20487;-67
2021/10/14 08:08:57;;;;;;;4.67;2.83;;;9.10;1.00;;;;;;5110852;28;20787;-67
2021/10/14 08:11:24;;;;;;;4.17;3.00;;;9.00;99.90;;;;;;5111460;28;20935;-66
2021/10/14 08:13:53;;;;;;;4.73;3.10;;;9.10;99.90;;;;;;5110450;28;20461;-67
2021/10/14 08:16:19;;;;;;;5.80;4.50;;;9.00;99.90;;;;;;5111411;28;20458;-66
2021/10/14 08:18:46;;;;;;;4.53;3.03;;;9.00;99.90;;;;;;5110387;28;20450;-67
2021/10/14 08:21:13;;;;;;;3.90;3.13;;;9.10;99.90;;;;;;5111335;28;20466;-67
2021/10/14 08:23:40;;;;;;;2.90;2.53;;;9.10;99.90;;;;;;5111153;28;20477;-67
2021/10/14 08:26:09;;;;;;;5.13;3.90;;;9.20;99.90;;;;;;5111216;28;20442;-67
2021/10/14 08:28:39;;;;;;;5.90;2.90;;;;;;;;;;5113584;28;20498;-66
2021/10/14 08:31:07;;;;;;;5.33;3.03;;;;;;;;;;5114927;28;20777;-66
2021/10/14 08:33:35;;;;;;;3.27;2.97;;;;;;;;;;5114778;28;20444;-67
2021/10/14 08:36:01;;;;;;;9.20;3.70;;;9.50;1.00;;;;;;5114573;28;20790;-67
2021/10/14 08:38:28;;;;;;;7.60;3.47;;;9.90;95.40;;;;;;5114587;28;20961;-66
2021/10/14 08:40:55;;;;;;;3.60;2.47;;;9.90;1.00;;;;;;5114495;28;20526;-66
2021/10/14 08:43:22;;;;;;;3.87;2.23;;;9.90;1.00;;;;;;5114534;28;20475;-66
2021/10/14 08:45:51;;;;;;;5.20;3.23;;;9.90;99.90;;;;;;5113821;28;20451;-66
2021/10/14 08:48:19;;;;;;;3.90;2.50;;;9.90;1.00;;;;;;5114878;28;20428;-67
2021/10/14 08:50:48;;;;;;;4.20;2.87;;;9.90;99.90;;;;;;5113926;28;20439;-67
2021/10/14 08:53:16;;;;;;;3.40;2.77;;;10.00;1.00;;;;;;5114401;28;20531;-66
2021/10/14 08:55:43;;;;;;;4.20;2.50;;;10.00;1.00;;;;;;5114192;28;20450;-66
2021/10/14 08:58:11;;;;;;;5.00;2.67;;;10.20;62.00;;;;;;5114173;28;20530;-66
2021/10/14 09:00:40;;;;;;;3.40;2.33;;;10.40;1.00;;;;;;5114520;28;20474;-66
2021/10/14 09:03:26;;;;;;;6.50;2.40;;;10.50;46.00;;;;;;5113799;28;20860;-66
2021/10/14 09:05:53;;;;;;;2.70;2.17;;;10.60;1.00;;;;;;5113982;28;20451;-66
2021/10/14 09:08:34;;;;;;;4.57;3.10;;;10.70;1.00;;;;;;5114021;28;20770;-66
2021/10/14 09:11:10;;;;;;;4.63;2.57;;;10.90;99.90;;;;;;5113741;28;20435;-66
2021/10/14 09:13:37;;;;;;;3.20;2.90;;;11.10;1.00;;;;;;5114238;28;20451;-66
2021/10/14 09:16:30;;;;;;;2.50;1.83;;;11.20;1.00;;;;;;5113522;28;20459;-67
2021/10/14 09:19:12;;;;;;;3.50;2.23;;;11.50;99.90;;;;;;5113250;28;20432;-67
2021/10/14 09:21:40;;;;;;;4.23;2.50;;;11.60;99.90;;;;;;5114113;28;20439;-67
2021/10/14 09:24:25;;;;;;;2.70;1.80;;;11.60;99.90;;;;;;5113408;28;20482;-66
2021/10/14 09:26:53;;;;;;;5.73;2.07;;;11.80;1.00;;;;;;5113553;28;20427;-67
2021/10/14 09:29:22;;;;;;;4.47;2.97;;;11.80;99.90;;;;;;5113954;28;20438;-66
2021/10/14 09:31:53;;;;;;;3.60;2.13;;;11.90;1.00;;;;;;5113101;28;20534;-66
2021/10/14 09:34:36;;;;;;;2.80;2.00;;;11.90;1.00;;;;;;5114209;28;20452;-67
2021/10/14 09:37:05;;;;;;;2.30;2.10;;;12.10;99.90;;;;;;5114056;28;20423;-66
2021/10/14 09:39:33;;;;;;;2.60;2.30;;;12.10;99.90;;;;;;5113558;28;20442;-67
2021/10/14 09:42:00;;;;;;;2.77;2.07;;;12.10;99.90;;;;;;5113416;28;20448;-67
2021/10/14 09:44:27;;;;;;;4.23;1.93;;;12.10;99.90;;;;;;5113722;28;20517;-67
2021/10/14 09:46:57;;;;;;;6.17;3.00;;;12.20;99.90;;;;;;5112394;28;20982;-66
2021/10/14 09:49:30;;;;;;;3.83;1.97;;;12.30;35.90;;;;;;5113189;28;20940;-66
2021/10/14 09:52:00;;;;;;;2.90;2.70;;;12.40;1.00;;;;;;5112601;28;20515;-66
2021/10/14 09:54:28;;;;;;;3.50;1.60;;;12.50;1.00;;;;;;5113378;28;20424;-66
2021/10/14 09:56:55;;;;;;;2.10;1.77;;;12.60;1.00;;;;;;5112621;28;20983;-66
2021/10/14 09:59:22;;;;;;;3.57;1.90;;;12.80;1.00;;;;;;5113450;28;20479;-66
2021/10/14 10:01:53;;;;;;;2.80;1.40;;;13.00;1.00;;;;;;5113224;28;20530;-66
2021/10/14 10:04:25;;;;;;;2.37;1.90;;;12.90;1.00;;;;;;5113181;28;20460;-66
2021/10/14 10:06:56;;;;;;;1.87;1.60;;;12.90;1.00;;;;;;5112930;28;20452;-66
2021/10/14 10:09:26;;;;;;;2.20;1.70;;;13.10;1.00;;;;;;5113009;28;20909;-66
2021/10/14 10:11:56;;;;;;;2.93;1.10;;;13.20;1.00;;;;;;5112320;28;20943;-66
2021/10/14 10:14:25;;;;;;;3.47;1.60;;;13.40;99.90;;;;;;5112838;28;20446;-66
2021/10/14 10:16:57;;;;;;;2.20;1.50;;;13.40;99.90;;;;;;5112125;28;20530;-66
2021/10/14 10:19:43;;;;;;;3.50;1.77;;;;;;;;;;5113101;28;20510;-66
2021/10/14 10:22:13;;;;;;;3.70;1.90;;;;;;;;;;5112143;28;20444;-66
2021/10/14 10:24:40;;;;;;;4.30;1.70;;;;;;;;;;5112525;28;20482;-66
2021/10/14 10:27:09;;;;;;;1.80;1.33;;;;;;;;;;5112197;28;20435;-66
2021/10/14 10:29:38;;;;;;;2.13;1.60;;;;;;;;;;5113033;28;20448;-66
2021/10/14 10:32:13;;;;;;;1.40;1.30;;;;;;;;;;5112468;28;20483;-66
2021/10/14 10:34:51;;;;;;;1.63;1.20;;;;;;;;;;5112490;28;20487;-66
2021/10/14 10:37:22;;;;;;;2.17;1.40;;;;;;;;;;5112979;28;20455;-66
2021/10/14 10:39:50;;;;;;;2.53;1.50;;;;;;;;;;5112366;28;20432;-67
2021/10/14 10:42:20;;;;;;;3.40;1.50;;;;;;;;;;5112686;28;20447;-67
2021/10/14 10:44:48;;;;;;;4.50;1.30;;;;;;;;;;5112603;28;20471;-67
2021/10/14 10:47:39;;;;;;;2.60;1.67;;;;;;;;;;5112477;28;20570;-66
2021/10/14 10:50:07;;;;;;;2.73;1.90;;;;;;;;;;5086084;28;20447;-66
2021/10/14 10:52:36;;;;;;;2.53;1.30;;;;;;;;;;5112558;28;20442;-67
2021/10/14 10:55:12;;;;;;;2.00;1.40;;;;;;;;;;5111810;28;20452;-66
2021/10/14 10:57:46;;;;;;;2.50;1.20;;;;;;;;;;5112147;28;20807;-66
2021/10/14 11:00:13;;;;;;;2.07;1.33;;;;;;;;;;5111678;28;20436;-66
2021/10/14 11:02:40;;;;;;;3.77;1.30;;;;;;;;;;5111977;28;20440;-66
2021/10/14 11:05:08;;;;;;;3.30;1.30;;;;;;;;;;5111281;28;20979;-66
2021/10/14 11:07:36;;;;;;;2.50;1.43;;;;;;;;;;5112188;28;20447;-67
2021/10/14 11:10:04;;;;;;;5.07;1.60;;;;;;;;;;5111288;28;20431;-67
2021/10/14 11:12:31;;;;;;;3.03;1.67;;;;;;;;;;5111611;28;20443;-67
2021/10/14 11:14:58;;;;;;;2.40;1.43;;;;;;;;;;5111209;28;20470;-66
2021/10/14 11:17:26;;;;;;;1.27;1.17;;;;;;;;;;5111734;28;20447;-67
2021/10/14 11:20:05;;;;;;;4.03;1.80;;;;;;;;;;5110948;28;21014;-67
2021/10/14 11:22:32;;;;;;;2.73;1.90;;;;;;;;;;5111885;28;20435;-67
2021/10/14 11:25:03;;;;;;;4.00;1.37;;;;;;;;;;5111152;28;20475;-66
2021/10/14 11:27:31;;;;;;;2.17;1.80;;;;;;;;;;5111899;28;20759;-66
2021/10/14 11:30:13;;;;;;;3.00;2.13;;;;;;;;;;5110657;28;20444;-67
2021/10/14 11:32:46;;;;;;;4.23;1.50;;;;;;;;;;5111695;28;20498;-66
2021/10/14 11:35:14;;;;;;;4.83;2.00;;;;;;;;;;5111050;28;20514;-66
2021/10/14 11:37:41;;;;;;;3.30;1.70;;;;;;;;;;5111629;28;20436;-67
2021/10/14 11:40:10;;;;;;;4.00;1.77;;;;;;;;;;5111089;28;20535;-66
2021/10/14 11:42:37;;;;;;;2.73;1.80;;;;;;;;;;5111332;28;20884;-66
2021/10/14 11:45:05;;;;;;;4.33;1.93;;;;;;;;;;5110965;28;20510;-66
2021/10/14 11:47:32;;;;;;;2.37;2.10;;;;;;;;;;5111193;28;20478;-66
2021/10/14 11:50:01;;;;;;;2.87;2.17;;;;;;;;;;5111070;28;20440;-66
2021/10/14 11:52:28;;;;;;;3.90;2.63;;;;;;;;;;5111496;28;20443;-66
2021/10/14 11:55:01;;;;;;;2.60;2.03;;;;;;;;;;5110588;28;20456;-66
2021/10/14 11:57:32;;;;;;;2.60;2.40;;;;;;;;;;5111652;28;20802;-67
2021/10/14 12:00:00;;;;;;;2.30;2.07;;;;;;;;;;5111064;28;20434;-67
2021/10/14 12:02:28;;;;;;;4.47;2.47;;;;;;;;;;5112024;28;20446;-67
2021/10/14 12:04:56;;;;;;;4.53;1.90;;;;;;;;;;5114597;28;20467;-66
2021/10/14 12:07:24;;;;;;;2.93;2.07;;;;;;;;;;5115570;28;20443;-66
2021/10/14 12:09:51;;;;;;;3.57;2.30;;;;;;;;;;5115580;28;20850;-66
2021/10/14 12:12:19;;;;;;;2.43;2.10;;;;;;;;;;5114642;28;20516;-66
2021/10/14 12:14:49;;;;;;;3.10;2.27;;;;;;;;;;5115064;28;20542;-66
2021/10/14 12:17:17;;;;;;;2.33;2.13;;;;;;;;;;5114760;28;20533;-67
2021/10/14 12:19:45;;;;;;;4.00;3.00;;;;;;;;;;5115309;28;20535;-66
2021/10/14 12:22:14;;;;;;;3.50;2.20;;;;;;;;;;5114709;28;20435;-66
2021/10/14 12:24:54;;;;;;;5.83;2.57;;;;;;;;;;5115133;28;20562;-67
2021/10/14 12:27:22;;;;;;;2.00;1.80;;;;;;;;;;5115207;28;20463;-66
2021/10/14 12:29:51;;;;;;;3.43;2.37;;;;;;;;;;5115154;28;20470;-67
2021/10/14 12:32:20;;;;;;;2.50;2.30;;;;;;;;;;5114567;28;20442;-66
2021/10/14 12:34:49;;;;;;;4.20;2.13;;;;;;;;;;5115082;28;20439;-66
2021/10/14 12:37:17;;;;;;;2.37;2.10;;;;;;;;;;5114437;28;20440;-66
2021/10/14 12:39:44;;;;;;;3.00;2.60;;;;;;;;;;5115008;28;20530;-66
2021/10/14 12:42:14;;;;;;;2.63;2.23;;;;;;;;;;5114359;28;20443;-66
2021/10/14 12:45:01;;;;;;;3.00;1.80;;;;;;;;;;5114566;28;20516;-66
2021/10/14 12:47:38;;;;;;;3.20;2.70;;;;;;;;;;5114815;28;20478;-66
2021/10/14 12:50:31;;;;;;;2.80;2.10;;;;;;;;;;5114064;28;20484;-67
2021/10/14 12:53:14;;;;;;;3.13;1.83;;;;;;;;;;5114198;28;20432;-66
2021/10/14 12:55:57;;;;;;;2.53;2.00;;;;;;;;;;5114291;28;20936;-67
2021/10/14 12:58:24;;;;;;;3.93;2.00;;;;;;;;;;5114664;28;20519;-67
2021/10/14 13:01:03;;;;;;;3.50;1.90;;;;;;;;;;5114582;28;20542;-67
2021/10/14 13:03:30;;;;;;;2.10;1.90;;;;;;;;;;5114842;28;20432;-67
2021/10/14 13:05:58;;;;;;;2.63;1.70;;;;;;;;;;5114254;28;20483;-67
2021/10/14 13:08:25;;;;;;;2.10;1.90;;;;;;;;;;5114520;28;20467;-66
2021/10/14 13:10:53;;;;;;;2.83;2.00;;;;;;;;;;5114449;28;20547;-67
2021/10/14 13:13:20;;;;;;;2.67;2.17;;;;;;;;;;5113698;28;20432;-67
2021/10/14 13:15:47;;;;;;;2.27;1.60;;;;;;;;;;5114266;28;20448;-66
2021/10/14 13:18:16;;;;;;;2.60;1.40;;;;;;;;;;5113724;28;20805;-67
2021/10/14 13:20:43;;;;;;;5.90;1.83;;;;;;;;;;5113983;28;20958;-66
2021/10/14 13:23:10;;;;;;;2.17;1.70;;;;;;;;;;5113141;28;20530;-67
2021/10/14 13:25:39;;;;;;;2.30;1.73;;;;;;;;;;5113975;28;20483;-66